METAR Data
IDs: Format: Raw Decoded Include TAF

Data at: 0557 UTC 19 Aug 2019

KEFK 190555Z AUTO 17005KT 10SM CLR 18/18 A2991 RMK AO2 T01830178 10218 20183
KEFK 190538Z AUTO 00000KT 10SM CLR 19/18 A2991 RMK AO2 T01890182
KEFK 190516Z AUTO 00000KT 10SM SCT070 SCT090 20/18 A2992 RMK AO2 T01950182
KEFK 190458Z AUTO 20004KT 10SM SCT050 SCT060 BKN070 21/18 A2993 RMK AO2 T02070184 402690156
KEFK 190436Z AUTO 20004KT 10SM SCT048 BKN060 OVC090 20/19 A2993 RMK AO2 T01970190
KEFK 190435Z AUTO 20004KT 10SM SCT048 BKN050 OVC090 20/19 A2993 RMK AO2 T01970190
KEFK 190419Z AUTO 22003KT 10SM SCT050 SCT075 OVC090 20/19 A2993 RMK AO2 T01990190
KEFK 190356Z AUTO 00000KT 10SM SCT075 OVC100 20/19 A2993 RMK AO2 T02010189
KEFK 190338Z AUTO 00000KT 10SM BKN100 20/19 A2993 RMK AO2 T02000190
KEFK 190316Z AUTO 00000KT 10SM SCT110 20/19 A2994 RMK AO2 T02010189
KEFK 190315Z AUTO 00000KT 10SM SCT110 20/19 A2994 RMK AO2 T02010189
KEFK 190255Z AUTO 20003KT 10SM BKN090 BKN110 20/19 A2995 RMK AO2 T02000191
KEFK 190236Z AUTO 00000KT 10SM BKN090 BKN110 20/19 A2996 RMK AO2 T01960190
KEFK 190218Z AUTO 19003KT 10SM BKN110 21/19 A2996 RMK AO2 T02070190
KEFK 190156Z AUTO 00000KT 10SM SCT070 BKN110 21/19 A2996 RMK AO2 T02100191
KEFK 190139Z AUTO 00000KT 10SM SCT100 20/19 A2996 RMK AO2 T02010192
KEFK 190135Z AUTO 00000KT 10SM SCT100 20/19 A2996 RMK AO2 T02000191
KEFK 190116Z AUTO 00000KT 10SM CLR 21/19 A2997 RMK AO2 T02070192
KEFK 190058Z AUTO 00000KT 10SM CLR 22/19 A2997 RMK AO2 T02170191
KEFK 190036Z AUTO 23003KT 10SM CLR 21/19 A2997 RMK AO2 T02120192
KEFK 190035Z AUTO 23003KT 10SM CLR 21/19 A2997 RMK AO2 T02110192
KEFK 190019Z AUTO 00000KT 10SM CLR 21/19 A2996 RMK AO2 T02090190
KEFK 182356Z AUTO 16003KT 10SM CLR 22/19 A2997 RMK AO2 T02210190 10269 20221
KEFK 182338Z AUTO 00000KT 10SM CLR 23/19 A2997 RMK AO2 T02260190
KEFK 182316Z AUTO 17003KT 10SM BKN090 23/19 A2997 RMK AO2 T02300194
KEFK 182315Z AUTO 16003KT 10SM BKN090 23/20 A2997 RMK AO2 T02300197
KEFK 182259Z AUTO 00000KT 10SM BKN090 24/19 A2998 RMK AO2 T02370194
KEFK 182236Z AUTO 00000KT 10SM CLR 24/19 A2998 RMK AO2 T02420189
KEFK 182218Z AUTO 00000KT 10SM CLR 24/19 A2998 RMK AO2 T02400187
KEFK 182156Z AUTO 16003KT 10SM CLR 25/19 A2998 RMK AO2 T02530193
KEFK 182155Z AUTO 16003KT 10SM CLR 26/20 A2998 RMK AO2 T02550195
KEFK 182139Z AUTO 17003KT 10SM CLR 26/19 A2999 RMK AO2 T02550185
KEFK 182116Z AUTO 16003KT 10SM CLR 26/18 A2999 RMK AO2 T02610182
KEFK 182058Z AUTO 19003KT 10SM CLR 26/19 A2998 RMK AO2 T02580187
KEFK 182036Z AUTO 17004KT 10SM CLR 26/19 A2998 RMK AO2 T02610185
KEFK 182035Z AUTO 17004KT 10SM CLR 26/18 A2999 RMK AO2 T02620183
KEFK 182019Z AUTO 21006KT 10SM CLR 26/19 A3000 RMK AO2 T02600188
KEFK 182015Z AUTO 21003KT 10SM CLR 26/19 A2999 RMK AO2 T02590187
KEFK 181956Z AUTO 22007KT 10SM CLR 27/19 A2999 RMK AO2 T02660188
KEFK 181938Z AUTO 21007KT 10SM CLR 26/19 A3000 RMK AO2 T02620188
KEFK 181915Z AUTO 21006KT 10SM SCT044 SCT065 26/18 A3001 RMK AO2 T02550181
KEFK 181859Z AUTO 17005KT 10SM SCT042 BKN048 BKN065 27/19 A3001 RMK AO2 T02670187
KEFK 181836Z AUTO 18003KT 10SM SCT039 SCT045 SCT055 26/18 A3001 RMK AO2 T02550176
KEFK 181818Z AUTO 00000KT 10SM SCT039 SCT045 26/18 A3001 RMK AO2 T02570183
KEFK 181755Z AUTO 12003KT 10SM SCT037 SCT045 25/18 A3002 RMK AO2 T02540181 10254 20180
KEFK 181738Z AUTO 00000KT 10SM SCT037 SCT043 SCT050 25/19 A3001 RMK AO2 T02490190
KEFK 181716Z AUTO 23003KT 10SM SCT050 24/18 A3001 RMK AO2 T02400180
KEFK 181658Z AUTO 21003KT 10SM SCT050 25/18 A3001 RMK AO2 T02480181
KEFK 181636Z AUTO 20007KT 150V220 10SM SCT049 24/18 A3001 RMK AO2 T02420179
KEFK 181635Z AUTO 19006KT 10SM SCT040 BKN049 24/18 A3002 RMK AO2 T02420181
KEFK 181618Z AUTO 25005KT 10SM SCT031 SCT040 OVC047 23/19 A3002 RMK AO2 T02320187
KEFK 181556Z AUTO 21006KT 10SM SCT031 BKN047 24/18 A3003 RMK AO2 T02360184
KEFK 181538Z AUTO 16003KT 10SM SCT047 24/19 A3003 RMK AO2 T02350189
KEFK 181515Z AUTO 20004KT 10SM SCT017 BKN024 23/19 A3004 RMK AO2 T02320193
KEFK 181458Z AUTO 12003KT 10SM BKN015 BKN020 23/19 A3004 RMK AO2 T02280190
KEFK 181436Z AUTO 10003KT 10SM SCT013 22/19 A3004 RMK AO2 T02200190
KEFK 181418Z AUTO 20004KT 10SM SCT011 SCT049 22/19 A3005 RMK AO2 T02150187
KEFK 181355Z AUTO 19006KT 10SM BKN047 21/19 A3005 RMK AO2 T02050189
KEFK 181338Z AUTO 20004KT 10SM SCT007 SCT036 OVC047 20/19 A3005 RMK AO2 T01960186
KEFK 181316Z AUTO 18003KT 10SM SCT007 OVC034 19/19 A3005 RMK AO2 T01910185
KEFK 181258Z AUTO 20007KT 10SM OVC032 19/18 A3004 RMK AO2 T01880182
KEFK 181236Z AUTO 20005KT 10SM BKN032 19/19 A3005 RMK AO2 T01940186
KEFK 181235Z AUTO 21004KT 10SM BKN032 20/19 A3004 RMK AO2 T01950186
KEFK 181218Z AUTO 22003KT 10SM SCT032 19/18 A3005 RMK AO2 T01870184
KEFK 181156Z AUTO 20004KT 10SM BKN030 18/18 A3004 RMK AO2 T01800180 10180 20156
KEFK 181138Z AUTO 20004KT 10SM OVC030 18/18 A3003 RMK AO2 T01780178
KEFK 181115Z AUTO 00000KT 10SM SCT008 OVC032 18/18 A3002 RMK AO2 T01760176
KEFK 181058Z AUTO 18003KT 10SM BKN008 OVC032 17/17 A3002 RMK AO2 T01730173
KEFK 181036Z AUTO 00000KT 10SM BKN008 OVC032 17/17 A3002 RMK AO2 T01690169
KEFK 181019Z AUTO 15003KT 7SM BKN008 BKN032 16/16 A3001 RMK AO2 T01620162
KEFK 181015Z AUTO 00000KT 5SM BR BKN008 16/16 A3002 RMK AO2 T01590159
KEFK 180955Z AUTO 07003KT 3SM BR SCT008 SCT026 16/16 A3001 RMK AO2 T01580158
KEFK 180939Z AUTO 17003KT 10SM SCT026 SCT034 17/17 A3002 RMK AO2 T01660166
KEFK 180916Z AUTO 19004KT 10SM SCT034 BKN060 17/17 A3002 RMK AO2 T01660166
KEFK 180859Z AUTO 00000KT 10SM BKN060 17/17 A3001 RMK AO2 T01700170
KEFK 180855Z AUTO 00000KT 10SM BKN050 17/17 A3001 RMK AO2 T01700170
KEFK 180836Z AUTO 18003KT 10SM BKN050 17/17 A3001 RMK AO2 T01700170
KEFK 180815Z AUTO 17003KT 10SM SCT010 SCT044 SCT055 17/17 A3001 RMK AO2 T01670167
KEFK 180756Z AUTO 13003KT 10SM SCT010 OVC046 17/17 A3001 RMK AO2 T01710171
KEFK 180739Z AUTO 00000KT 10SM SCT008 BKN044 17/17 A3001 RMK AO2 T01710171
KEFK 180716Z AUTO 19004KT 10SM SCT008 17/17 A3000 RMK AO2 T01720172
KEFK 180659Z AUTO 19006KT 10SM CLR 17/17 A3000 RMK AO2 T01710171
KEFK 180655Z AUTO 19005KT 10SM CLR 17/17 A3000 RMK AO2 T01720172
KEFK 180636Z AUTO 18005KT 10SM SCT010 SCT070 17/17 A3000 RMK AO2 T01720172
KEFK 180618Z AUTO 19006KT 10SM BKN085 17/17 A3001 RMK AO2 T01730173
KEFK 180556Z AUTO 19005KT 10SM BKN085 17/17 A3001 RMK AO2 T01720172 10210 20172
KEFK 180535Z AUTO 17004KT 10SM BKN070 OVC085 18/18 A3000 RMK AO2 T01770176
KEFK 180516Z AUTO 19004KT 10SM BKN070 18/18 A3000 RMK AO2 T01760176
KEFK 180455Z AUTO 19004KT 10SM SCT070 18/18 A3000 RMK AO2 T01770177 402640175
KEFK 180436Z AUTO 17004KT 10SM CLR 18/18 A2999 RMK AO2 T01800180
KEFK 180418Z AUTO 16005KT 10SM CLR 18/18 A3000 RMK AO2 T01800180
KEFK 180356Z AUTO 17004KT 10SM SCT110 18/18 A3000 RMK AO2 T01810181
KEFK 180355Z AUTO 17004KT 10SM SCT110 18/18 A3000 RMK AO2 T01810181
KEFK 180338Z AUTO 00000KT 10SM SCT110 18/18 A3000 RMK AO2 T01840184
KEFK 180316Z AUTO 17005KT 10SM SCT120 19/19 A2999 RMK AO2 T01890187
KEFK 180258Z AUTO 17005KT 10SM BKN120 19/19 A2999 RMK AO2 T01900190
KEFK 180236Z AUTO 18004KT 7SM SCT120 19/19 A2999 RMK AO2 T01920192
KEFK 180235Z AUTO 18004KT 7SM SCT120 19/19 A2999 RMK AO2 T01920192
KEFK 180218Z AUTO 15005KT 5SM BR SCT110 20/20 A2999 RMK AO2 T01950195
KEFK 180156Z AUTO 16005KT 10SM SCT024 BKN110 20/20 A2999 RMK AO2 T01980197
KEFK 180138Z AUTO 17004KT 7SM SCT018 BKN024 OVC110 20/20 A2999 RMK AO2 T02000200
KEFK 180115Z AUTO 23003KT 7SM RA SCT018 BKN023 OVC033 20/20 A3000 RMK AO2 T02010201
KEFK 180058Z AUTO 24003KT 10SM RA SCT028 BKN037 OVC110 20/20 A2999 RMK AO2 T02020200
KEFK 180036Z AUTO 00000KT 10SM -RA SCT038 SCT049 BKN120 20/20 A2998 RMK AO2 T02030200
KEFK 180018Z AUTO 17003KT 10SM -RA SCT041 BKN055 OVC110 20/20 A2998 RMK AO2 T02010198
KEFK 172355Z AUTO 16003KT 10SM -RA SCT043 BKN055 OVC065 21/19 A2997 RMK AO2 T02110193 10264 20204
KEFK 172339Z AUTO 16004KT 10SM -RA BKN045 OVC065 21/19 A2998 RMK AO2 T02080194
KEFK 172316Z AUTO 00000KT 10SM -RA BKN065 BKN080 OVC120 22/19 A2998 RMK AO2 T02150193
KEFK 172258Z AUTO 00000KT 10SM BKN080 BKN120 22/19 A2997 RMK AO2 T02210189
KEFK 172236Z AUTO 28005KT 10SM SCT080 SCT120 23/19 A2997 RMK AO2 T02260193
KEFK 172235Z AUTO 28004KT 10SM SCT080 SCT120 23/19 A2997 RMK AO2 T02260194
KEFK 172218Z AUTO 00000KT 10SM SCT110 23/20 A2997 RMK AO2 T02260199
KEFK 172156Z AUTO 00000KT 10SM SCT110 24/20 A2996 RMK AO2 T02370196
KEFK 172138Z AUTO 00000KT 10SM CLR 24/20 A2996 RMK AO2 T02400198
KEFK 172115Z AUTO 24004KT 10SM SCT080 SCT110 25/20 A2997 RMK AO2 T02480196
KEFK 172058Z AUTO 23003KT 10SM SCT080 SCT090 SCT110 25/19 A2997 RMK AO2 T02510191
KEFK 172036Z AUTO 21005KT 10SM SCT080 SCT090 26/19 A2997 RMK AO2 T02550191
KEFK 172018Z AUTO 21006KT 10SM CLR 26/20 A2997 RMK AO2 T02600200
KEFK 171955Z AUTO 19005KT 10SM CLR 26/20 A2998 RMK AO2 T02620195
KEFK 171939Z AUTO 19005KT 10SM CLR 26/19 A2998 RMK AO2 T02570194
KEFK 171916Z AUTO 20006KT 10SM CLR 26/20 A2998 RMK AO2 T02620195
KEFK 171858Z AUTO 21009G15KT 10SM CLR 26/20 A2999 RMK AO2 T02590197
KEFK 171835Z AUTO 17006KT 140V220 10SM CLR 26/20 A3000 RMK AO2 T02570199
KEFK 171819Z AUTO 18008KT 150V220 10SM CLR 26/20 A3000 RMK AO2 T02560196